Date,TemperatureHighF,TemperatureAvgF,TemperatureLowF,DewpointHighF,DewpointAvgF,DewpointLowF,HumidityHigh,HumidityAvg,HumidityLow,PressureMaxIn,PressureMinIn,WindSpeedMaxMPH,WindSpeedAvgMPH,GustSpeedMaxMPH,PrecipitationSumIn
2012-9-18,63.6,63.1,62.0,46.6,46.1,45.7,57,54,53,29.92,29.91,9,3,0,0.00
2012-9-19,89.5,71.4,54.4,56.9,50.7,45.1,75,51,29,29.91,29.74,11,4,16,0.00
2012-9-20,83.6,69.5,50.8,47.3,42.5,37.3,76,40,20,29.93,29.82,9,1,0,0.00
2012-9-21,88.7,70.2,53.6,52.7,44.8,40.6,74,45,20,29.87,29.77,12,2,16,0.00
2012-9-22,76.0,62.9,50.7,46.0,38.4,29.4,79,45,23,30.15,29.87,14,2,17,0.00
2012-9-23,75.8,62.4,52.2,41.0,34.8,28.0,51,36,25,30.19,30.03,8,1,13,0.00
2012-9-24,89.9,72.5,55.0,57.4,49.9,40.7,73,48,27,30.03,29.66,12,3,19,0.00
2012-9-25,91.2,74.9,57.7,65.7,56.8,51.0,93,56,34,29.72,29.59,10,1,30,0.80
2012-9-26,77.6,68.1,63.0,65.6,62.4,60.4,96,83,61,30.00,29.65,8,1,15,0.09
2012-9-27,70.9,65.4,61.6,65.3,62.8,60.7,98,91,80,30.03,29.95,6,0,0,0.00
2012-9-28,76.0,65.8,59.8,66.0,62.8,59.2,99,91,63,30.05,29.94,8,1,0,0.00
2012-9-29,72.5,64.4,58.0,61.8,57.7,53.9,98,80,57,30.01,29.91,7,1,0,0.00
2012-9-30,75.1,61.7,51.4,54.6,51.5,44.1,93,72,34,29.93,29.80,7,1,0,0.00
2012-10-1,73.7,59.6,49.5,58.4,50.4,45.9,93,73,44,29.90,29.79,15,4,22,0.01
2012-10-2,76.9,60.5,45.3,49.2,42.7,36.2,87,56,24,29.94,29.79,10,1,13,0.00
2012-10-3,81.2,59.3,45.4,49.1,43.5,39.9,85,60,31,29.85,29.73,11,2,16,0.00
2012-10-4,57.4,54.1,52.0,42.6,40.2,38.7,69,59,50,30.16,30.10,20,6,24,0.00
2012-10-5,56.3,50.0,39.3,42.3,34.5,25.3,75,56,30,30.25,30.13,18,5,22,0.00
2012-10-6,46.4,43.0,38.9,36.7,33.9,30.4,82,70,55,30.32,30.21,13,3,17,0.00
2012-10-7,57.4,42.2,30.2,34.6,30.3,28.1,95,67,34,30.31,30.11,8,1,0,0.00
2012-10-8,68.5,50.4,33.9,36.7,33.1,28.6,83,55,28,30.12,29.87,12,4,18,0.00
2012-10-9,69.3,54.2,44.0,49.0,41.5,35.2,80,63,42,30.10,29.78,14,4,21,0.00
2012-10-10,67.8,51.6,35.3,36.0,30.5,27.7,81,49,24,30.22,30.03,6,1,0,0.00
2012-10-11,81.6,66.2,52.0,63.5,50.9,32.6,77,58,45,30.04,29.83,17,3,17,0.00
2012-10-12,65.8,61.0,55.7,65.3,59.6,52.8,99,95,86,30.08,29.89,6,1,7,0.49
2012-10-13,79.1,67.9,56.6,71.5,64.9,51.2,98,90,63,29.89,29.47,14,4,20,0.09
2012-10-14,75.5,61.4,51.8,52.4,47.8,43.2,88,65,33,29.96,29.52,12,2,18,0.00
2012-10-15,87.6,66.8,49.4,50.9,45.5,40.4,80,52,20,29.95,29.69,12,2,13,0.00
2012-10-16,81.7,68.0,53.4,56.3,50.9,47.3,81,56,36,29.69,29.37,14,3,14,0.00
2012-10-17,72.4,61.7,46.4,58.1,43.7,25.5,94,58,20,29.72,29.28,20,3,25,0.02
2012-10-18,66.7,55.7,45.9,29.9,24.5,20.3,50,31,19,29.81,29.71,10,2,19,0.00
2012-10-19,69.8,53.6,41.4,30.2,24.8,18.5,60,34,17,29.84,29.73,14,1,16,0.00
2012-10-20,83.8,61.3,40.5,51.8,38.7,26.5,73,46,25,29.75,29.57,8,2,0,0.00
2012-10-21,88.4,72.4,59.6,66.7,61.5,51.4,97,71,40,29.61,29.49,13,4,18,0.00
2012-10-22,75.5,67.1,58.5,66.6,59.9,52.4,90,78,67,29.71,29.55,11,2,16,0.00
2012-10-23,89.6,74.6,62.2,67.6,61.7,52.1,95,69,28,29.68,29.54,17,6,21,0.00
2012-10-24,82.2,72.7,66.2,67.7,65.5,63.4,93,79,59,29.64,29.51,16,6,23,0.00
2012-10-25,69.2,49.2,36.4,64.2,41.0,29.9,91,74,53,30.25,29.46,18,7,23,0.00
2012-10-26,45.9,37.1,30.0,29.7,26.5,23.4,83,67,45,30.48,30.25,20,6,21,0.00
2012-10-27,50.0,35.2,22.2,29.6,24.8,19.6,93,68,39,30.38,30.18,7,1,0,0.00
2012-10-28,57.8,42.1,25.7,31.1,27.6,23.4,93,60,33,30.28,30.14,8,2,0,0.00
2012-10-29,65.7,50.3,36.8,33.6,29.7,25.8,68,47,29,30.18,29.97,10,3,15,0.00
2012-10-30,75.1,56.6,45.3,39.9,36.2,30.8,69,48,27,29.97,29.79,7,2,0,0.00
2012-10-31,70.5,51.2,35.4,38.6,35.4,31.5,87,59,31,30.02,29.89,4,1,0,0.00
2012-11-1,78.6,57.1,39.1,43.7,38.5,32.8,80,53,25,29.96,29.82,6,1,0,0.00
2012-11-2,83.2,62.0,50.3,47.4,42.2,32.0,73,52,18,29.89,29.65,12,3,16,0.00
2012-11-3,62.4,46.5,37.0,38.1,34.4,31.6,86,64,38,30.14,29.89,16,4,17,0.00
2012-11-4,68.0,49.9,31.7,39.1,33.5,29.4,97,59,27,30.16,29.97,10,2,15,0.00
2012-11-5,55.0,46.6,34.6,39.8,35.9,30.5,89,67,46,30.08,29.98,13,3,19,0.00
2012-11-6,65.6,46.4,32.6,40.3,33.9,30.4,94,69,28,30.08,30.01,16,3,20,0.00
2012-11-21,64.0,60.7,58.3,48.0,46.9,46.2,66,60,56,29.90,29.83,12,6,15,0.00
2012-11-22,73.2,59.7,41.8,53.6,46.0,33.8,74,61,34,30.21,29.74,13,6,21,0.00
2012-11-23,45.4,36.8,24.0,33.7,21.0,16.0,77,54,33,30.50,30.21,14,3,19,0.00
2012-11-24,59.3,40.7,21.7,26.2,21.9,16.9,83,51,26,30.38,29.86,14,4,21,0.00
2012-11-25,60.2,43.2,26.8,31.0,26.6,20.2,78,54,32,29.91,29.78,14,2,14,0.00
2012-11-26,46.0,33.9,24.7,30.3,26.7,21.4,88,76,40,30.43,29.90,22,7,25,0.00
2012-11-27,45.0,30.6,15.7,28.3,22.9,13.5,94,75,50,30.43,30.23,10,2,13,0.00
2012-11-28,57.4,40.8,22.0,36.0,29.5,19.6,93,66,41,30.33,30.06,11,2,15,0.00
2012-11-29,66.8,49.7,35.9,45.3,39.8,32.0,88,70,44,30.06,29.86,12,2,15,0.00
2012-11-30,62.8,47.6,30.0,51.0,42.2,28.2,97,83,59,30.02,29.85,8,1,13,0.00
2012-12-1,63.0,54.9,42.9,55.9,48.8,40.2,97,82,44,29.85,29.68,12,3,16,0.00
2012-12-2,68.5,51.5,34.8,54.4,43.4,34.2,99,77,42,29.97,29.69,8,2,0,0.00
2012-12-3,69.8,59.7,49.6,57.3,48.2,34.8,91,68,32,29.99,29.57,19,6,22,0.00
2012-12-4,62.5,45.6,32.5,36.9,27.6,22.4,77,53,23,30.25,29.99,7,1,0,0.00
2012-12-5,59.2,44.9,31.3,31.5,24.6,20.1,72,48,22,30.26,29.90,10,3,15,0.00
2012-12-6,53.7,47.9,43.1,46.4,40.2,28.4,90,75,52,29.90,29.75,10,4,14,0.00
2012-12-7,50.1,41.4,33.2,41.5,35.9,30.1,91,81,67,29.90,29.76,8,3,0,0.00
2012-12-8,43.8,37.8,26.2,41.5,34.5,24.2,96,88,76,29.92,29.76,7,1,0,0.00
2012-12-9,43.0,34.1,20.5,41.5,23.1,8.7,96,66,43,30.15,29.77,14,4,18,0.00
2012-12-10,34.6,21.9,7.2,10.1,4.5,1.4,78,49,27,30.17,30.00,10,2,14,0.00
2012-12-11,48.0,30.4,14.0,20.2,12.3,4.1,68,48,30,30.12,30.01,7,1,0,0.00
2012-12-12,52.1,36.5,23.6,19.2,16.2,13.8,69,46,25,30.12,29.99,14,4,22,0.00
2012-12-13,59.1,44.3,33.1,28.0,24.4,18.4,62,46,29,30.04,29.94,11,4,17,0.00
2012-12-14,54.4,46.7,39.2,45.8,35.3,27.0,95,66,50,29.98,29.42,19,6,22,0.00
2012-12-15,59.9,47.7,31.6,45.6,40.8,29.8,97,78,55,29.64,29.37,17,4,21,0.00
2012-12-16,45.7,36.5,30.8,36.5,33.0,29.3,97,88,67,29.77,29.61,11,3,16,0.00
2012-12-17,56.4,37.3,26.0,33.9,29.5,24.2,97,78,29,29.79,29.66,8,1,0,0.00
2012-12-18,44.7,41.3,36.4,25.9,24.1,21.7,58,50,45,29.76,29.74,4,1,0,0.00
2012-12-19,53.3,44.3,30.4,47.8,35.2,25.7,92,71,48,29.75,29.38,12,3,24,0.00
2012-12-20,37.7,29.2,22.8,28.7,20.8,16.7,96,72,45,30.29,29.61,13,4,20,0.00
2012-12-21,44.1,23.0,15.3,24.0,16.2,12.3,90,77,40,30.31,30.26,5,1,0,0.00
2012-12-23,19.6,18.7,18.3,16.9,16.2,15.9,91,90,88,29.99,29.98,0,0,0,0.00
2012-12-24,29.0,22.8,17.3,17.1,14.9,13.4,91,72,59,30.08,29.99,15,6,17,0.00
2012-12-25,22.8,18.2,12.5,14.4,10.8,5.5,82,73,61,30.29,30.04,23,11,28,0.00
2012-12-26,28.9,20.8,6.7,10.5,8.8,3.4,86,60,44,30.31,30.08,7,2,14,0.00
2012-12-27,33.0,26.3,18.3,23.4,18.9,9.7,88,73,60,30.10,29.84,12,3,15,0.00
2012-12-28,30.3,23.4,11.8,21.9,14.2,7.2,83,68,44,30.17,29.95,9,1,14,0.00
2012-12-29,45.5,23.3,8.3,21.2,13.0,4.7,87,67,34,30.36,30.17,5,1,0,0.00
2012-12-30,46.8,33.7,22.2,23.8,19.6,15.7,81,58,34,30.32,30.09,18,4,26,0.00
2012-12-31,33.7,30.7,23.6,32.7,26.5,18.8,96,85,57,30.11,29.90,13,3,0,0.05
2013-1-1,27.9,20.2,9.9,22.2,17.6,7.8,94,90,78,30.29,30.11,13,3,0,0.00